Time;durP1;ratioP1;P1;durP2;ratioP2;P2;SDS_P1;SDS_P2;PMS_P1;PMS_P2;Temp;Humidity;BMP_temperature;BMP_pressure;BME280_temperature;BME280_humidity;BME280_pressure;Samples;Min_cycle;Max_cycle;Signal;HPM_P1;HPM_P2
2022/12/03 00:00:41;;;;;;;23.23;16.57;;;1.70;1.00;;;;;;5027168;28;20284;-64
2022/12/03 00:03:08;;;;;;;24.50;16.03;;;1.70;1.00;;;;;;5031316;28;20537;-66
2022/12/03 00:05:35;;;;;;;23.57;16.10;;;1.70;1.00;;;;;;5029901;28;20192;-63
2022/12/03 00:08:03;;;;;;;25.63;17.10;;;1.70;1.00;;;;;;5028610;28;20588;-64
2022/12/03 00:10:30;;;;;;;25.03;17.67;;;1.70;1.00;;;;;;5025183;28;20749;-64
2022/12/03 00:12:57;;;;;;;23.97;17.13;;;1.70;1.00;;;;;;5027234;28;20215;-67
2022/12/03 00:15:24;;;;;;;25.80;17.13;;;1.70;1.00;;;;;;5024365;28;20188;-64
2022/12/03 00:17:50;;;;;;;23.87;16.40;;;1.70;1.00;;;;;;5032082;28;20552;-64
2022/12/03 00:20:20;;;;;;;25.67;17.07;;;1.70;1.00;;;;;;5003672;28;20210;-64
2022/12/03 00:22:48;;;;;;;33.17;18.93;;;1.70;1.00;;;;;;5017553;28;20876;-64
2022/12/03 00:25:16;;;;;;;31.07;18.80;;;1.80;1.00;;;;;;5029812;28;20295;-64
2022/12/03 00:27:43;;;;;;;28.97;17.20;;;1.80;1.00;;;;;;5025359;28;20745;-63
2022/12/03 00:30:10;;;;;;;29.63;18.67;;;1.80;1.00;;;;;;5011894;28;20247;-63
2022/12/03 00:32:38;;;;;;;25.30;17.20;;;1.70;1.00;;;;;;5020281;28;20195;-63
2022/12/03 00:35:05;;;;;;;27.30;17.70;;;1.70;1.00;;;;;;5029541;28;20277;-63
2022/12/03 00:37:34;;;;;;;28.80;18.77;;;1.70;1.00;;;;;;5025702;28;20188;-61
2022/12/03 00:40:02;;;;;;;27.00;18.10;;;1.70;1.00;;;;;;5027515;28;20195;-69
2022/12/03 00:42:29;;;;;;;27.57;18.37;;;1.70;1.00;;;;;;5021224;28;20243;-61
2022/12/03 00:44:56;;;;;;;33.33;18.77;;;1.70;1.00;;;;;;5029221;28;20203;-60
2022/12/03 00:47:23;;;;;;;30.00;18.67;;;1.70;1.00;;;;;;5024526;28;20200;-61
2022/12/03 00:49:51;;;;;;;30.23;18.63;;;1.70;1.00;;;;;;5030645;28;20215;-61
2022/12/03 00:52:18;;;;;;;27.77;18.03;;;1.70;1.00;;;;;;5029719;28;20193;-61
2022/12/03 00:54:45;;;;;;;30.43;17.20;;;1.70;1.00;;;;;;5031394;28;20200;-62
2022/12/03 00:57:12;;;;;;;33.03;18.50;;;1.70;1.00;;;;;;5027852;28;20197;-64
2022/12/03 00:59:39;;;;;;;33.50;17.90;;;1.70;1.00;;;;;;5025567;28;20298;-61
2022/12/03 01:02:06;;;;;;;29.10;17.73;;;1.70;1.00;;;;;;5028929;28;20194;-61
2022/12/03 01:04:34;;;;;;;30.40;17.40;;;1.70;1.00;;;;;;5026135;28;20242;-62
2022/12/03 01:07:01;;;;;;;29.30;17.17;;;1.70;1.00;;;;;;5024208;28;20208;-61
2022/12/03 01:09:28;;;;;;;32.57;18.80;;;1.70;1.00;;;;;;5026799;28;20251;-61
2022/12/03 01:11:55;;;;;;;30.73;17.47;;;1.70;1.00;;;;;;5024135;28;20211;-62
2022/12/03 01:14:22;;;;;;;29.57;18.47;;;1.70;1.00;;;;;;5023992;28;20207;-60
2022/12/03 01:16:49;;;;;;;31.07;17.30;;;1.70;1.00;;;;;;5031253;28;20208;-61
2022/12/03 01:19:17;;;;;;;29.93;16.87;;;1.70;1.00;;;;;;5015336;28;20260;-60
2022/12/03 01:21:49;;;;;;;28.50;16.70;;;1.70;1.00;;;;;;5029337;28;20486;-62
2022/12/03 01:24:18;;;;;;;31.37;17.20;;;1.70;1.00;;;;;;5023244;28;20751;-61
2022/12/03 01:26:45;;;;;;;29.77;16.60;;;1.70;1.00;;;;;;5030845;28;20276;-61
2022/12/03 01:29:13;;;;;;;34.70;16.47;;;1.70;1.00;;;;;;5037281;28;20238;-61
2022/12/03 01:34:26;;;;;;;31.47;16.97;;;1.70;1.00;;;;;;5030943;28;20680;-60
2022/12/03 01:36:53;;;;;;;28.37;15.00;;;1.70;1.00;;;;;;5032328;28;20988;-60
2022/12/03 01:39:20;;;;;;;31.47;16.53;;;1.70;1.00;;;;;;5036792;28;20208;-61
2022/12/03 01:41:48;;;;;;;30.30;15.50;;;1.70;1.00;;;;;;5033172;28;20752;-61
2022/12/03 01:44:37;;;;;;;29.73;15.10;;;1.60;1.00;;;;;;5031729;28;20243;-60
2022/12/03 01:47:06;;;;;;;30.37;15.90;;;1.70;1.00;;;;;;5031964;28;20579;-62
2022/12/03 01:49:45;;;;;;;30.67;15.50;;;1.60;1.00;;;;;;5025635;28;20192;-61
2022/12/03 01:52:16;;;;;;;29.97;15.87;;;1.60;1.00;;;;;;5035524;28;20411;-61
2022/12/03 01:54:51;;;;;;;27.40;15.37;;;1.60;1.00;;;;;;5025488;28;20220;-61
2022/12/03 01:57:26;;;;;;;31.90;16.43;;;1.60;1.00;;;;;;5026420;28;20214;-62
2022/12/03 01:59:55;;;;;;;30.13;15.37;;;1.60;1.00;;;;;;5007162;28;20195;-61
2022/12/03 02:02:28;;;;;;;32.40;16.20;;;1.60;1.00;;;;;;5031182;28;20196;-63
2022/12/03 02:04:56;;;;;;;30.10;14.57;;;1.60;1.00;;;;;;5284580;22;20231;-80
2022/12/03 02:07:31;;;;;;;35.83;15.90;;;1.60;1.00;;;;;;5061860;28;20774;-77
2022/12/03 02:10:00;;;;;;;30.07;14.53;;;1.60;1.00;;;;;;5026801;28;20833;-76
2022/12/03 02:12:34;;;;;;;29.57;14.77;;;1.60;1.00;;;;;;5054859;28;20207;-79
2022/12/03 02:15:03;;;;;;;28.97;14.03;;;1.50;1.00;;;;;;5059429;28;20210;-78
2022/12/03 02:17:31;;;;;;;29.80;15.43;;;1.50;1.00;;;;;;5039360;28;20507;-77
2022/12/03 02:19:58;;;;;;;27.23;14.20;;;2.70;1.00;;;;;;5047957;28;20784;-78
2022/12/03 02:22:33;;;;;;;32.10;15.40;;;1.50;1.00;;;;;;5034261;28;20199;-77
2022/12/03 02:25:11;;;;;;;32.50;15.47;;;1.50;1.00;;;;;;5057599;28;20649;-79
2022/12/03 02:27:39;;;;;;;30.00;14.90;;;2.20;1.00;;;;;;5053660;28;20200;-79
2022/12/03 02:30:08;;;;;;;29.63;15.60;;;1.60;1.00;;;;;;5057379;28;20199;-80
2022/12/03 02:32:36;;;;;;;29.53;15.43;;;1.50;1.00;;;;;;5041061;28;20275;-79
2022/12/03 02:35:04;;;;;;;29.73;15.17;;;2.30;1.00;;;;;;5047536;28;20205;-80
2022/12/03 02:37:36;;;;;;;29.57;14.90;;;1.50;1.00;;;;;;5032542;28;20291;-79
2022/12/03 02:40:06;;;;;;;37.33;16.30;;;2.00;1.00;;;;;;5040276;28;20257;-78
2022/12/03 02:42:34;;;;;;;30.10;15.53;;;1.50;1.00;;;;;;5041107;28;20191;-79
2022/12/03 02:45:06;;;;;;;31.67;15.13;;;1.50;1.00;;;;;;5034846;28;20719;-81
2022/12/03 02:47:38;;;;;;;27.57;13.93;;;1.40;1.00;;;;;;5024785;28;20231;-78
2022/12/03 02:50:06;;;;;;;33.33;15.80;;;1.50;1.00;;;;;;5050993;28;20255;-80
2022/12/03 02:52:34;;;;;;;32.17;14.87;;;1.40;1.00;;;;;;5038307;28;20302;-79
2022/12/03 02:55:03;;;;;;;31.13;14.63;;;1.50;1.00;;;;;;5054173;28;20212;-79
2022/12/03 02:57:31;;;;;;;31.30;14.80;;;1.40;1.00;;;;;;5053621;28;20639;-79
2022/12/03 02:59:58;;;;;;;28.93;15.03;;;1.40;1.00;;;;;;5054129;28;20555;-77
2022/12/03 03:02:27;;;;;;;32.57;16.23;;;2.40;1.00;;;;;;5038550;28;20637;-78
2022/12/03 03:04:55;;;;;;;29.77;14.27;;;2.80;1.00;;;;;;5043814;28;20235;-79
2022/12/03 03:07:23;;;;;;;31.73;15.67;;;1.40;1.00;;;;;;5038050;28;20195;-79
2022/12/03 03:09:50;;;;;;;31.30;16.50;;;1.40;1.00;;;;;;5027151;28;20203;-79
2022/12/03 03:12:18;;;;;;;30.73;15.87;;;1.40;1.00;;;;;;5032973;28;20210;-78
2022/12/03 03:14:46;;;;;;;29.27;15.27;;;2.70;1.00;;;;;;5043597;28;20545;-79
2022/12/03 03:17:13;;;;;;;27.60;14.53;;;1.30;1.00;;;;;;5029775;28;20272;-79
2022/12/03 03:19:40;;;;;;;27.57;14.70;;;1.40;1.00;;;;;;5042720;28;20203;-77
2022/12/03 03:22:10;;;;;;;34.60;16.60;;;2.00;1.00;;;;;;5010960;28;20217;-79
2022/12/03 03:24:38;;;;;;;31.10;14.60;;;1.40;1.00;;;;;;5033551;28;20216;-80
2022/12/03 03:27:08;;;;;;;28.80;14.67;;;1.30;1.00;;;;;;5016169;28;20184;-79
2022/12/03 03:29:35;;;;;;;28.30;15.50;;;1.40;1.00;;;;;;5036006;28;20214;-79
2022/12/03 03:32:03;;;;;;;30.23;15.37;;;1.40;1.00;;;;;;5031945;28;20207;-79
2022/12/03 03:34:32;;;;;;;29.67;15.27;;;1.40;1.00;;;;;;5039383;28;20638;-79
2022/12/03 03:36:59;;;;;;;38.93;16.97;;;1.30;1.00;;;;;;5040071;28;20187;-79
2022/12/03 03:39:26;;;;;;;28.57;15.10;;;2.70;1.00;;;;;;5040015;28;20282;-77
2022/12/03 03:41:54;;;;;;;32.60;15.80;;;1.30;1.00;;;;;;5043379;28;20200;-77
2022/12/03 03:44:22;;;;;;;30.20;15.80;;;1.30;1.00;;;;;;5038694;28;20220;-78
2022/12/03 03:46:49;;;;;;;38.83;16.67;;;1.30;1.00;;;;;;5058656;28;20201;-77
2022/12/03 03:49:16;;;;;;;34.03;15.27;;;1.30;1.00;;;;;;5042849;28;20203;-78
2022/12/03 03:51:43;;;;;;;33.40;16.33;;;1.30;1.00;;;;;;5043817;28;20194;-80
2022/12/03 03:54:11;;;;;;;32.83;16.10;;;2.20;1.00;;;;;;5040846;28;20673;-79
2022/12/03 03:56:39;;;;;;;34.97;16.73;;;3.40;1.00;;;;;;5033490;28;20535;-77
2022/12/03 03:59:06;;;;;;;30.33;15.87;;;1.50;1.00;;;;;;5024622;28;20826;-76
2022/12/03 04:01:33;;;;;;;34.43;17.40;;;1.30;1.00;;;;;;5052640;28;20205;-77
2022/12/03 04:04:01;;;;;;;34.23;16.43;;;1.30;1.00;;;;;;5036571;28;20219;-76
2022/12/03 04:06:29;;;;;;;35.60;16.70;;;1.30;1.00;;;;;;5035377;28;20235;-76
2022/12/03 04:08:56;;;;;;;32.03;14.97;;;1.30;1.00;;;;;;5041290;28;20223;-76
2022/12/03 04:14:09;;;;;;;38.63;16.77;;;1.20;1.00;;;;;;5051838;28;20298;-77
2022/12/03 04:16:36;;;;;;;33.03;16.50;;;1.20;1.00;;;;;;5035271;28;20735;-78
2022/12/03 04:19:03;;;;;;;38.20;17.27;;;1.20;1.00;;;;;;5030822;28;20216;-77
2022/12/03 04:24:15;;;;;;;32.83;15.40;;;1.30;1.00;;;;;;5032460;28;20211;-76
2022/12/03 04:29:27;;;;;;;34.93;16.57;;;1.40;1.00;;;;;;5036423;28;20200;-76
2022/12/03 04:37:25;;;;;;;35.20;15.43;;;1.20;1.00;;;;;;5030951;28;20229;-77
2022/12/03 04:39:53;;;;;;;38.93;16.70;;;1.10;1.00;;;;;;5028738;28;20195;-77
2022/12/03 04:42:20;;;;;;;30.17;15.20;;;1.20;1.00;;;;;;5043689;28;20195;-77
2022/12/03 04:44:47;;;;;;;39.40;17.03;;;1.30;1.00;;;;;;5023571;28;20281;-77
2022/12/03 04:47:19;;;;;;;36.30;16.63;;;1.70;1.00;;;;;;5036082;28;20204;-76
2022/12/03 04:49:48;;;;;;;35.47;17.03;;;1.20;1.00;;;;;;5049397;28;20275;-77
2022/12/03 04:52:18;;;;;;;39.77;17.27;;;1.10;1.00;;;;;;5033899;28;20391;-77
2022/12/03 04:54:45;;;;;;;33.83;16.67;;;1.10;1.00;;;;;;5039664;28;20206;-76
2022/12/03 04:57:12;;;;;;;43.37;18.53;;;1.10;1.00;;;;;;5026162;28;20199;-77
2022/12/03 04:59:39;;;;;;;39.60;18.17;;;1.10;1.00;;;;;;5034069;28;20264;-77
2022/12/03 05:02:07;;;;;;;41.37;19.50;;;2.10;1.00;;;;;;5038747;28;20202;-77
2022/12/03 05:04:34;;;;;;;42.60;19.47;;;1.40;1.00;;;;;;5041119;28;20314;-77
2022/12/03 05:07:02;;;;;;;41.47;19.97;;;1.00;1.00;;;;;;5044002;28;20191;-80
2022/12/03 05:09:31;;;;;;;47.10;20.03;;;1.80;1.00;;;;;;5022794;28;20198;-78
2022/12/03 05:11:58;;;;;;;43.97;18.97;;;1.00;1.00;;;;;;5043737;28;20295;-78
2022/12/03 05:14:25;;;;;;;37.63;18.03;;;1.10;1.00;;;;;;5039108;28;20210;-78
2022/12/03 05:16:52;;;;;;;41.67;18.97;;;1.80;1.00;;;;;;5031848;28;20268;-79
2022/12/03 05:19:19;;;;;;;42.00;18.87;;;1.80;1.00;;;;;;5037702;28;20334;-78
2022/12/03 05:21:48;;;;;;;38.87;19.73;;;1.00;1.00;;;;;;5050150;28;20268;-78
2022/12/03 05:24:14;;;;;;;40.37;18.00;;;1.00;1.00;;;;;;5041814;28;20257;-79
2022/12/03 05:26:41;;;;;;;41.40;18.87;;;1.00;1.00;;;;;;5039762;28;20295;-79
2022/12/03 05:29:10;;;;;;;41.80;19.53;;;1.00;1.00;;;;;;5022239;28;20265;-79
2022/12/03 05:31:37;;;;;;;36.33;18.53;;;1.00;1.00;;;;;;5035184;28;20276;-78
2022/12/03 05:34:04;;;;;;;44.53;20.00;;;1.70;1.00;;;;;;5053232;28;20279;-78
2022/12/03 05:36:31;;;;;;;42.97;18.03;;;0.90;1.00;;;;;;5038285;28;20192;-79
2022/12/03 05:38:58;;;;;;;41.33;19.50;;;0.90;1.00;;;;;;5056156;28;20227;-79
2022/12/03 05:44:13;;;;;;;40.70;17.60;;;0.80;1.00;;;;;;5044267;28;20204;-79
2022/12/03 05:46:46;;;;;;;46.57;21.10;;;0.80;1.00;;;;;;5028409;28;20601;-79
2022/12/03 05:49:13;;;;;;;36.50;18.33;;;0.80;1.00;;;;;;5041294;28;20226;-79
2022/12/03 05:51:42;;;;;;;43.87;19.47;;;0.80;1.00;;;;;;5021657;28;20786;-79
2022/12/03 05:54:09;;;;;;;42.17;20.23;;;0.80;1.00;;;;;;5019094;28;20905;-78
2022/12/03 05:56:36;;;;;;;41.53;18.80;;;0.90;1.00;;;;;;5021787;28;20207;-79
2022/12/03 05:59:03;;;;;;;38.63;18.87;;;0.90;1.00;;;;;;5036002;28;20199;-78
2022/12/03 06:01:30;;;;;;;43.47;19.67;;;0.90;1.00;;;;;;5037073;28;20251;-78
2022/12/03 06:03:58;;;;;;;33.43;17.10;;;0.80;1.00;;;;;;5034455;28;20249;-77
2022/12/03 06:06:25;;;;;;;36.70;16.60;;;0.80;1.00;;;;;;5024947;28;20356;-77
2022/12/03 06:08:51;;;;;;;39.23;18.70;;;0.90;1.00;;;;;;5027672;28;20653;-78
2022/12/03 06:11:18;;;;;;;42.43;18.20;;;0.90;1.00;;;;;;5029680;28;20662;-77
2022/12/03 06:13:45;;;;;;;38.53;19.27;;;0.80;1.00;;;;;;5050817;28;20257;-76
2022/12/03 06:16:12;;;;;;;35.80;17.77;;;1.70;1.00;;;;;;5032011;28;20291;-76
2022/12/03 06:18:39;;;;;;;39.60;18.17;;;0.80;1.00;;;;;;5033085;28;20188;-77
2022/12/03 06:21:06;;;;;;;39.73;17.87;;;1.10;1.00;;;;;;5059093;28;20824;-77
2022/12/03 06:23:33;;;;;;;42.80;19.27;;;0.70;1.00;;;;;;5028881;28;20200;-77
2022/12/03 06:26:00;;;;;;;42.17;19.77;;;0.80;1.00;;;;;;5016889;28;20253;-77
2022/12/03 06:28:27;;;;;;;40.30;19.27;;;0.80;1.00;;;;;;5024858;28;20548;-77
2022/12/03 06:30:54;;;;;;;43.23;18.60;;;0.80;1.00;;;;;;5032970;28;20786;-76
2022/12/03 06:33:22;;;;;;;38.80;18.63;;;0.80;1.00;;;;;;5036276;28;20291;-77
2022/12/03 06:35:49;;;;;;;42.50;19.83;;;0.80;1.00;;;;;;5042137;28;20272;-77
2022/12/03 06:38:16;;;;;;;42.47;20.07;;;0.80;1.00;;;;;;5033303;28;20227;-77
2022/12/03 06:40:43;;;;;;;41.33;20.33;;;0.80;1.00;;;;;;5043638;28;20866;-77
2022/12/03 06:43:10;;;;;;;41.87;21.47;;;2.80;1.00;;;;;;5058431;28;20673;-77
2022/12/03 06:45:37;;;;;;;40.10;19.53;;;0.80;1.00;;;;;;5043603;28;20220;-78
2022/12/03 06:48:10;;;;;;;43.03;20.10;;;0.70;1.00;;;;;;5040711;28;20204;-78
2022/12/03 06:50:37;;;;;;;44.33;21.10;;;0.70;1.00;;;;;;5019005;28;20562;-77
2022/12/03 06:53:04;;;;;;;42.77;20.93;;;0.70;1.00;;;;;;5035813;28;20289;-78
2022/12/03 06:55:31;;;;;;;51.27;23.03;;;0.70;1.00;;;;;;5042490;28;20198;-76
2022/12/03 06:57:58;;;;;;;50.17;22.23;;;0.70;1.00;;;;;;5042200;28;20195;-77
2022/12/03 07:00:25;;;;;;;41.20;19.70;;;1.40;1.00;;;;;;5040569;28;20195;-77
2022/12/03 07:02:52;;;;;;;45.37;20.77;;;0.70;1.00;;;;;;5039085;28;20221;-77
2022/12/03 07:05:19;;;;;;;41.83;20.47;;;1.10;1.00;;;;;;5028505;28;20255;-77
2022/12/03 07:07:51;;;;;;;44.70;19.77;;;0.30;1.00;;;;;;5044164;28;20659;-77
2022/12/03 07:10:18;;;;;;;44.80;19.70;;;1.60;1.00;;;;;;5014281;28;20196;-77
2022/12/03 07:12:45;;;;;;;41.50;19.93;;;0.70;1.00;;;;;;5037042;28;21068;-77
2022/12/03 07:15:12;;;;;;;46.30;20.30;;;1.50;1.00;;;;;;5048360;28;20196;-77
2022/12/03 07:17:39;;;;;;;46.53;20.80;;;0.70;1.00;;;;;;5026569;28;20211;-77
2022/12/03 07:20:07;;;;;;;43.20;20.40;;;0.70;1.00;;;;;;5056070;28;20693;-77
2022/12/03 07:22:35;;;;;;;41.53;20.23;;;0.80;1.00;;;;;;5056329;28;20652;-77
2022/12/03 07:25:02;;;;;;;45.20;19.33;;;0.80;1.00;;;;;;5061887;28;20305;-77
2022/12/03 07:27:29;;;;;;;40.03;18.20;;;0.80;1.00;;;;;;5040561;28;20199;-77
2022/12/03 07:29:56;;;;;;;39.67;19.03;;;0.80;1.00;;;;;;5038411;28;20487;-77
2022/12/03 07:32:23;;;;;;;43.77;20.40;;;0.80;1.00;;;;;;5038885;28;20191;-77
2022/12/03 07:34:50;;;;;;;43.43;20.70;;;1.10;1.00;;;;;;5040778;28;20253;-77
2022/12/03 07:37:17;;;;;;;42.63;20.40;;;2.10;1.00;;;;;;5051266;28;20202;-78
2022/12/03 07:40:05;;;;;;;47.07;20.53;;;0.80;1.00;;;;;;5017798;28;20211;-76
2022/12/03 07:42:32;;;;;;;41.83;20.13;;;0.80;1.00;;;;;;5045053;28;20611;-77
2022/12/03 07:44:59;;;;;;;44.83;21.13;;;0.80;1.00;;;;;;5054340;28;20752;-77
2022/12/03 07:47:26;;;;;;;43.60;20.03;;;0.90;1.00;;;;;;5035653;28;20196;-77
2022/12/03 07:49:53;;;;;;;48.20;22.40;;;0.90;1.00;;;;;;5037221;28;20216;-77
2022/12/03 07:52:20;;;;;;;39.63;20.13;;;0.90;1.00;;;;;;5023169;28;20234;-77
2022/12/03 07:54:47;;;;;;;40.97;21.53;;;0.90;1.00;;;;;;5025876;28;20203;-77
2022/12/03 07:57:14;;;;;;;40.73;19.30;;;0.90;1.00;;;;;;5057479;28;20298;-76
2022/12/03 07:59:41;;;;;;;43.60;21.20;;;0.90;1.00;;;;;;5026271;28;20238;-77
2022/12/03 08:02:08;;;;;;;39.57;19.90;;;0.80;1.00;;;;;;5043590;28;20228;-76
2022/12/03 08:04:35;;;;;;;40.93;20.37;;;0.90;1.00;;;;;;5033619;28;20235;-78
2022/12/03 08:07:02;;;;;;;42.10;21.50;;;0.90;1.00;;;;;;5056491;28;20275;-78
2022/12/03 08:09:30;;;;;;;44.57;21.80;;;0.90;1.00;;;;;;5038421;28;20191;-78
2022/12/03 08:12:01;;;;;;;45.80;20.97;;;0.90;1.00;;;;;;5040793;28;21455;-78
2022/12/03 08:14:28;;;;;;;38.87;19.60;;;0.90;1.00;;;;;;5044344;28;20274;-76
2022/12/03 08:16:58;;;;;;;39.33;18.80;;;0.90;1.00;;;;;;5031015;28;20678;-75
2022/12/03 08:19:26;;;;;;;43.70;22.00;;;0.90;1.00;;;;;;5039902;28;20238;-76
2022/12/03 08:21:53;;;;;;;40.07;20.83;;;1.20;1.00;;;;;;5037273;28;20644;-77
2022/12/03 08:24:28;;;;;;;40.20;19.83;;;0.90;1.00;;;;;;5020583;28;20223;-76
2022/12/03 08:26:56;;;;;;;41.43;19.63;;;0.90;1.00;;;;;;5038986;28;20273;-78
2022/12/03 08:29:23;;;;;;;38.57;19.33;;;0.90;1.00;;;;;;5009643;28;20200;-78
2022/12/03 08:31:55;;;;;;;40.17;20.67;;;0.90;1.00;;;;;;5033371;28;20551;-78
2022/12/03 08:34:31;;;;;;;41.33;20.00;;;0.90;1.00;;;;;;5038662;28;20207;-77
2022/12/03 08:37:04;;;;;;;39.70;19.13;;;1.00;1.00;;;;;;5051788;28;20226;-77
2022/12/03 08:39:33;;;;;;;38.73;19.00;;;0.90;1.00;;;;;;5022122;28;20207;-76
2022/12/03 08:45:27;;;;;;;34.60;17.33;;;0.90;1.00;;;;;;5054797;28;20285;-76
2022/12/03 08:47:59;;;;;;;45.90;20.00;;;0.90;1.00;;;;;;5030320;28;20189;-76
2022/12/03 08:50:29;;;;;;;46.00;20.60;;;0.90;1.00;;;;;;5043250;28;20289;-76
2022/12/03 08:53:24;;;;;;;41.90;19.73;;;0.90;1.00;;;;;;5052787;28;20616;-75
2022/12/03 08:55:53;;;;;;;39.37;19.10;;;0.90;1.00;;;;;;5029311;28;20690;-76
2022/12/03 08:58:32;;;;;;;43.63;19.87;;;1.40;1.00;;;;;;5033143;28;20192;-77
2022/12/03 09:01:05;;;;;;;38.37;18.73;;;1.00;1.00;;;;;;5033381;28;20671;-76
2022/12/03 09:03:32;;;;;;;42.43;19.87;;;1.00;1.00;;;;;;5036554;28;20586;-76
2022/12/03 09:06:00;;;;;;;41.03;19.27;;;1.00;1.00;;;;;;5015923;28;20234;-76
2022/12/03 09:08:27;;;;;;;37.63;19.07;;;1.00;1.00;;;;;;5035591;28;20227;-77
2022/12/03 09:10:54;;;;;;;41.30;18.50;;;1.00;1.00;;;;;;5026180;28;20187;-77
2022/12/03 09:13:22;;;;;;;39.53;20.37;;;1.60;1.00;;;;;;5039028;28;20816;-77
2022/12/03 09:15:49;;;;;;;42.73;19.37;;;1.00;1.00;;;;;;5036720;28;20299;-76
2022/12/03 09:18:16;;;;;;;39.70;18.57;;;1.10;1.00;;;;;;5041968;28;20294;-76
2022/12/03 09:20:43;;;;;;;39.53;19.60;;;1.60;1.00;;;;;;5039023;28;20196;-76
2022/12/03 09:23:10;;;;;;;36.90;18.10;;;1.10;1.00;;;;;;5040275;28;20279;-77
2022/12/03 09:25:37;;;;;;;40.83;20.53;;;1.00;1.00;;;;;;5043641;28;20811;-76
2022/12/03 09:28:04;;;;;;;40.40;17.73;;;1.20;1.00;;;;;;5037736;28;20211;-76
2022/12/03 09:30:31;;;;;;;43.10;20.20;;;1.10;1.00;;;;;;5041599;28;20241;-76
2022/12/03 09:32:59;;;;;;;38.20;18.90;;;1.20;1.00;;;;;;5043112;28;20197;-76
2022/12/03 09:35:27;;;;;;;39.40;19.77;;;1.20;1.00;;;;;;5040833;28;20265;-75
2022/12/03 09:37:54;;;;;;;35.83;17.40;;;1.20;1.00;;;;;;5038007;28;20209;-76
2022/12/03 09:40:21;;;;;;;41.43;18.77;;;1.80;1.00;;;;;;5034540;28;20663;-76
2022/12/03 09:42:50;;;;;;;42.73;20.33;;;1.20;1.00;;;;;;5033261;28;20245;-78
2022/12/03 09:45:18;;;;;;;39.67;19.77;;;1.80;1.00;;;;;;5038820;28;20253;-78
2022/12/03 09:47:49;;;;;;;40.37;20.03;;;1.20;1.00;;;;;;5042663;28;20200;-78
2022/12/03 09:50:21;;;;;;;41.27;18.90;;;1.20;1.00;;;;;;5044600;28;20219;-78
2022/12/03 09:52:49;;;;;;;39.83;20.03;;;1.30;1.00;;;;;;5022467;28;20307;-79
2022/12/03 09:55:21;;;;;;;43.67;21.17;;;1.30;1.00;;;;;;5045233;28;20199;-76
2022/12/03 09:57:53;;;;;;;37.20;18.50;;;1.30;1.00;;;;;;5045097;28;20664;-76
2022/12/03 10:00:24;;;;;;;42.00;19.30;;;1.30;1.00;;;;;;5063352;28;20681;-76
2022/12/03 10:02:55;;;;;;;40.03;19.27;;;1.30;1.00;;;;;;5044071;28;20219;-76
2022/12/03 10:05:22;;;;;;;37.47;18.53;;;1.30;1.00;;;;;;5035564;28;20327;-76
2022/12/03 10:07:51;;;;;;;38.40;20.07;;;1.40;1.00;;;;;;5057585;28;20256;-78
2022/12/03 10:10:23;;;;;;;40.67;19.67;;;1.40;1.00;;;;;;5037982;28;20190;-79
2022/12/03 10:12:51;;;;;;;40.83;19.27;;;1.50;1.00;;;;;;5015078;28;21358;-76
2022/12/03 10:15:22;;;;;;;35.13;18.20;;;1.70;1.00;;;;;;5038689;28;20245;-77
2022/12/03 10:17:51;;;;;;;43.90;22.33;;;1.50;1.00;;;;;;5038226;28;20201;-79
2022/12/03 10:20:21;;;;;;;39.87;20.37;;;1.60;1.00;;;;;;5051495;28;20801;-76
2022/12/03 10:22:48;;;;;;;37.87;18.87;;;1.60;1.00;;;;;;5042473;28;20196;-76
2022/12/03 10:25:18;;;;;;;40.10;19.53;;;1.60;1.00;;;;;;5034391;28;20239;-79
2022/12/03 10:28:00;;;;;;;41.73;19.90;;;1.70;1.00;;;;;;5032217;28;21162;-78
2022/12/03 10:30:28;;;;;;;42.80;20.07;;;1.70;1.00;;;;;;5034333;28;20231;-76
2022/12/03 10:32:57;;;;;;;40.43;19.30;;;2.10;1.00;;;;;;5040854;28;20180;-76
2022/12/03 10:35:39;;;;;;;40.10;18.73;;;1.60;1.00;;;;;;5037081;28;20290;-76
2022/12/03 10:38:16;;;;;;;41.00;20.93;;;1.60;1.00;;;;;;5057471;28;20197;-76
2022/12/03 10:40:44;;;;;;;39.80;18.70;;;1.60;1.00;;;;;;5036584;28;20274;-76
2022/12/03 10:43:19;;;;;;;34.87;18.80;;;1.60;1.00;;;;;;5046991;28;20284;-76
2022/12/03 10:46:08;;;;;;;38.43;19.57;;;2.20;1.00;;;;;;5037867;28;20324;-76
2022/12/03 10:48:36;;;;;;;35.87;18.30;;;1.50;1.00;;;;;;5045007;28;20674;-76
2022/12/03 10:51:08;;;;;;;39.80;19.10;;;1.60;1.00;;;;;;5059259;28;20188;-77
2022/12/03 10:53:37;;;;;;;37.53;18.97;;;1.60;1.00;;;;;;5043717;28;20267;-76
2022/12/03 10:56:06;;;;;;;40.00;20.50;;;1.60;1.00;;;;;;5041757;28;20207;-77
2022/12/03 10:58:35;;;;;;;35.93;19.70;;;1.60;1.00;;;;;;5031510;28;20273;-77
2022/12/03 11:01:13;;;;;;;38.10;19.27;;;1.60;1.00;;;;;;5031380;28;20216;-77
2022/12/03 11:03:40;;;;;;;38.93;19.13;;;1.60;1.00;;;;;;5032470;28;20667;-76
2022/12/03 11:06:17;;;;;;;36.80;19.00;;;1.50;1.00;;;;;;5046304;28;20698;-77
2022/12/03 11:08:48;;;;;;;39.47;18.73;;;1.50;1.00;;;;;;5034545;28;20195;-76
2022/12/03 11:11:28;;;;;;;40.47;19.50;;;1.50;1.00;;;;;;5033603;28;20354;-76
2022/12/03 11:14:01;;;;;;;40.63;19.53;;;1.50;1.00;;;;;;5053258;28;20271;-77
2022/12/03 11:16:40;;;;;;;39.10;18.63;;;1.60;1.00;;;;;;5037264;28;20464;-77
2022/12/03 11:19:16;;;;;;;39.63;19.20;;;2.20;1.00;;;;;;5043200;28;20679;-77
2022/12/03 11:22:02;;;;;;;31.77;18.13;;;1.60;1.00;;;;;;5036946;28;20694;-77
2022/12/03 11:24:30;;;;;;;44.10;19.03;;;1.60;1.00;;;;;;5026758;28;20246;-77
2022/12/03 11:26:57;;;;;;;37.57;19.00;;;1.70;1.00;;;;;;5034114;28;20207;-77
2022/12/03 11:29:46;;;;;;;32.30;17.23;;;2.60;1.00;;;;;;5039600;28;20184;-77
2022/12/03 11:32:39;;;;;;;33.90;17.10;;;1.70;1.00;;;;;;5028172;28;20197;-76
2022/12/03 11:35:27;;;;;;;33.47;17.83;;;1.70;1.00;;;;;;5042179;28;20197;-77
2022/12/03 11:37:54;;;;;;;35.30;19.27;;;1.70;1.00;;;;;;5035410;28;20209;-77
2022/12/03 11:40:26;;;;;;;32.33;18.13;;;1.70;1.00;;;;;;5038333;28;20200;-77
2022/12/03 11:42:53;;;;;;;35.70;17.23;;;1.70;1.00;;;;;;5052546;28;20960;-76
2022/12/03 11:45:35;;;;;;;40.27;19.93;;;1.70;1.00;;;;;;5044001;28;20242;-76
2022/12/03 11:48:13;;;;;;;30.27;17.10;;;1.70;1.00;;;;;;5043671;28;20564;-77
2022/12/03 11:50:48;;;;;;;33.60;16.73;;;1.70;1.00;;;;;;5041290;28;20837;-77
2022/12/03 11:53:29;;;;;;;36.77;17.83;;;1.70;1.00;;;;;;5051581;28;20199;-76
2022/12/03 11:56:09;;;;;;;35.60;17.53;;;1.70;1.00;;;;;;5047986;28;20321;-76
2022/12/03 11:58:41;;;;;;;38.17;19.00;;;1.70;1.00;;;;;;5030154;28;20253;-76
2022/12/03 12:01:08;;;;;;;35.77;18.00;;;1.60;1.00;;;;;;5033203;28;20207;-77
2022/12/03 12:03:55;;;;;;;29.10;15.60;;;1.60;1.00;;;;;;5035043;28;20185;-76
2022/12/03 12:06:23;;;;;;;29.43;16.53;;;1.70;1.00;;;;;;5038226;28;20254;-77
2022/12/03 12:08:50;;;;;;;33.07;16.83;;;1.70;1.00;;;;;;5045708;28;20199;-77
2022/12/03 12:11:18;;;;;;;31.67;17.20;;;1.70;1.00;;;;;;5042147;28;20184;-77
2022/12/03 12:13:58;;;;;;;32.20;18.30;;;1.70;1.00;;;;;;5040346;28;20734;-77
2022/12/03 12:16:44;;;;;;;29.90;15.67;;;1.80;1.00;;;;;;5043382;28;20601;-76
2022/12/03 12:19:35;;;;;;;32.20;16.60;;;1.90;1.00;;;;;;5037065;28;20214;-77
2022/12/03 12:22:16;;;;;;;33.37;16.87;;;1.70;1.00;;;;;;5050773;28;20202;-76
2022/12/03 12:24:47;;;;;;;33.23;17.10;;;1.60;1.00;;;;;;5043096;28;20237;-77
2022/12/03 12:27:20;;;;;;;30.70;16.07;;;1.60;1.00;;;;;;5045853;28;20208;-76
2022/12/03 12:30:00;;;;;;;35.67;16.80;;;1.60;1.00;;;;;;5024658;28;20261;-77
2022/12/03 12:32:29;;;;;;;31.07;15.87;;;1.60;1.00;;;;;;5049621;28;20203;-76
2022/12/03 12:35:14;;;;;;;26.70;15.47;;;1.60;1.00;;;;;;5044093;28;20290;-77
2022/12/03 12:37:49;;;;;;;35.67;17.07;;;1.50;1.00;;;;;;5053878;28;20204;-76
2022/12/03 12:40:26;;;;;;;34.37;17.70;;;1.50;1.00;;;;;;5014052;28;20707;-76
2022/12/03 12:43:13;;;;;;;36.97;18.77;;;1.50;1.00;;;;;;5032769;28;20195;-76
2022/12/03 12:45:50;;;;;;;43.10;22.63;;;1.60;1.00;;;;;;5053950;28;20240;-76
2022/12/03 12:48:24;;;;;;;41.57;23.77;;;1.60;1.00;;;;;;5042189;28;20194;-76
2022/12/03 12:51:06;;;;;;;32.77;17.43;;;1.60;1.00;;;;;;5034504;28;20179;-76
2022/12/03 12:53:35;;;;;;;33.93;18.47;;;1.60;1.00;;;;;;5026780;28;20623;-76
2022/12/03 12:56:26;;;;;;;32.67;17.63;;;1.60;1.00;;;;;;5037633;28;20231;-76
2022/12/03 12:58:58;;;;;;;32.50;18.97;;;1.60;1.00;;;;;;5055824;28;20628;-77
2022/12/03 13:01:29;;;;;;;29.93;17.67;;;1.70;1.00;;;;;;5032220;28;20187;-77
2022/12/03 13:03:58;;;;;;;31.03;17.23;;;1.60;1.00;;;;;;5038948;28;20224;-76
2022/12/03 13:06:27;;;;;;;34.83;18.97;;;1.70;1.00;;;;;;5048525;28;20725;-76
2022/12/03 13:09:18;;;;;;;29.47;16.33;;;2.10;1.00;;;;;;5022618;28;20253;-77
2022/12/03 13:11:50;;;;;;;35.83;17.60;;;1.70;1.00;;;;;;5027486;28;20192;-77
2022/12/03 13:14:22;;;;;;;28.77;17.87;;;1.70;1.00;;;;;;5049961;28;20583;-77
2022/12/03 13:16:51;;;;;;;31.17;16.93;;;1.80;1.00;;;;;;5035507;28;20193;-77
2022/12/03 13:19:21;;;;;;;29.23;16.73;;;2.10;1.00;;;;;;5040405;28;20306;-76
2022/12/03 13:21:49;;;;;;;28.60;16.27;;;1.70;1.00;;;;;;5035233;28;20214;-77
2022/12/03 13:24:32;;;;;;;32.90;17.10;;;1.60;1.00;;;;;;5030013;28;20642;-77